Time;durP1;ratioP1;P1;durP2;ratioP2;P2;SDS_P1;SDS_P2;PMS_P1;PMS_P2;Temp;Humidity;BMP_temperature;BMP_pressure;BME280_temperature;BME280_humidity;BME280_pressure;Samples;Min_cycle;Max_cycle;Signal;HPM_P1;HPM_P2
2022/02/25 00:00:40;;;;;;;4.07;2.83;;;;;;;;;;5076467;28;20162;-80
2022/02/25 00:03:07;;;;;;;3.60;2.47;;;;;;;;;;5057777;28;20028;-80
2022/02/25 00:05:34;;;;;;;4.57;2.50;;;;;;;;;;5074328;28;20020;-80
2022/02/25 00:08:01;;;;;;;3.42;2.28;;;;;;;;;;5095584;28;20048;-80
2022/02/25 00:10:27;;;;;;;3.70;2.30;;;;;;;;;;5095535;28;20043;-80
2022/02/25 00:12:53;;;;;;;2.88;2.10;;;;;;;;;;5077381;28;20026;-80
2022/02/25 00:15:20;;;;;;;4.75;2.42;;;;;;;;;;5094119;28;20028;-80
2022/02/25 00:17:46;;;;;;;3.78;2.28;;;;;;;;;;5076035;28;20511;-80
2022/02/25 00:20:12;;;;;;;4.72;2.90;;;;;;;;;;5094417;28;20486;-80
2022/02/25 00:22:39;;;;;;;4.20;2.25;;;;;;;;;;5076922;28;20020;-80
2022/02/25 00:25:06;;;;;;;4.70;2.42;;;;;;;;;;5076551;28;20107;-80
2022/02/25 00:27:32;;;;;;;3.72;2.70;;;;;;;;;;5076704;28;20035;-80
2022/02/25 00:29:58;;;;;;;3.50;2.58;;;;;;;;;;5095194;28;20119;-80
2022/02/25 00:32:24;;;;;;;4.65;2.67;;;;;;;;;;5094232;28;20031;-80
2022/02/25 00:34:50;;;;;;;4.13;2.45;;;;;;;;;;5094888;28;20030;-80
2022/02/25 00:37:17;;;;;;;4.20;2.55;;;;;;;;;;5076472;28;20020;-80
2022/02/25 00:39:43;;;;;;;4.68;2.40;;;;;;;;;;5076101;28;20030;-80
2022/02/25 00:42:12;;;;;;;3.20;2.30;;;;;;;;;;5048892;28;20414;-80
2022/02/25 00:44:40;;;;;;;4.72;2.80;;;;;;;;;;5094925;28;20053;-80
2022/02/25 00:47:06;;;;;;;4.65;1.98;;;;;;;;;;5077097;28;20066;-80
2022/02/25 00:49:32;;;;;;;3.65;1.85;;;;;;;;;;5094375;28;20040;-80
2022/02/25 00:51:58;;;;;;;3.60;2.28;;;;;;;;;;5094148;28;20058;-80
2022/02/25 00:54:25;;;;;;;3.67;2.10;;;;;;;;;;5075560;28;20036;-80
2022/02/25 00:56:51;;;;;;;3.45;2.00;;;;;;;;;;5094697;28;20510;-80
2022/02/25 00:59:17;;;;;;;2.78;1.70;;;;;;;;;;5094446;28;20024;-80
2022/02/25 01:01:43;;;;;;;4.13;2.05;;;;;;;;;;5093097;28;20093;-79
2022/02/25 01:04:09;;;;;;;3.70;2.20;;;;;;;;;;5089221;28;20024;-80
2022/02/25 01:06:35;;;;;;;2.00;1.55;;;;;;;;;;5055454;28;20036;-80
2022/02/25 01:09:02;;;;;;;3.53;2.00;;;;;;;;;;4989595;28;1421168;-80
2022/02/25 01:11:28;;;;;;;2.95;1.92;;;;;;;;;;5055804;28;20391;-80
2022/02/25 01:13:54;;;;;;;3.05;1.85;;;;;;;;;;5056270;28;20036;-80
2022/02/25 01:16:20;;;;;;;4.07;1.75;;;;;;;;;;5056445;28;20025;-80
2022/02/25 01:18:46;;;;;;;2.22;1.70;;;;;;;;;;5073944;28;20024;-80
2022/02/25 01:21:13;;;;;;;3.10;2.00;;;;;;;;;;5074014;28;20025;-80
2022/02/25 01:23:39;;;;;;;2.78;1.90;;;;;;;;;;5073847;28;20020;-80
2022/02/25 01:26:05;;;;;;;3.55;2.03;;;;;;;;;;5074509;28;20040;-80
2022/02/25 01:28:34;;;;;;;3.22;1.77;;;;;;;;;;5056418;28;20024;-80
2022/02/25 01:31:01;;;;;;;3.55;1.95;;;;;;;;;;5055875;28;20059;-80
2022/02/25 01:33:27;;;;;;;2.97;1.90;;;;;;;;;;5073479;28;20027;-80
2022/02/25 01:35:53;;;;;;;2.92;1.60;;;;;;;;;;5055658;28;20407;-80
2022/02/25 01:38:19;;;;;;;2.83;1.60;;;;;;;;;;5074497;28;20083;-80
2022/02/25 01:40:46;;;;;;;5.07;1.98;;;;;;;;;;5074180;28;20043;-80
2022/02/25 01:43:12;;;;;;;2.95;1.73;;;;;;;;;;5088655;28;20101;-80
2022/02/25 01:45:38;;;;;;;2.50;1.67;;;;;;;;;;5094238;28;20024;-80
2022/02/25 01:48:05;;;;;;;3.83;1.95;;;;;;;;;;5076964;28;20039;-80
2022/02/25 01:50:31;;;;;;;2.58;1.73;;;;;;;;;;5059410;28;20458;-80
2022/02/25 01:52:57;;;;;;;2.65;1.60;;;;;;;;;;5092948;28;20099;-80
2022/02/25 01:55:24;;;;;;;3.05;2.03;;;;;;;;;;5075264;28;20077;-80
2022/02/25 01:57:50;;;;;;;2.63;1.70;;;;;;;;;;5076159;28;20047;-80
2022/02/25 02:00:16;;;;;;;3.13;1.40;;;;;;;;;;5094132;28;20024;-77
2022/02/25 02:02:43;;;;;;;2.05;1.30;;;;;;;;;;5093079;28;20016;-77
2022/02/25 02:05:09;;;;;;;3.35;1.88;;;;;;;;;;5079701;28;20020;-77
2022/02/25 02:07:36;;;;;;;3.28;1.70;;;;;;;;;;5054463;28;20049;-77
2022/02/25 02:10:03;;;;;;;2.90;1.40;;;;;;;;;;5072740;28;20032;-77
2022/02/25 02:12:29;;;;;;;3.50;1.83;;;;;;;;;;5072286;28;20024;-77
2022/02/25 02:14:55;;;;;;;2.95;1.80;;;;;;;;;;5072532;28;20403;-77
2022/02/25 02:17:24;;;;;;;3.17;1.85;;;;;;;;;;5072860;28;20116;-77
2022/02/25 02:19:50;;;;;;;2.97;1.90;;;;;;;;;;5072995;28;20020;-77
2022/02/25 02:22:16;;;;;;;2.92;1.70;;;;;;;;;;5071771;28;20078;-77
2022/02/25 02:24:42;;;;;;;2.45;1.80;;;;;;;;;;5072548;28;20081;-77
2022/02/25 02:27:08;;;;;;;4.15;1.85;;;;;;;;;;5072348;28;20032;-77
2022/02/25 02:29:34;;;;;;;3.47;1.60;;;;;;;;;;5054897;28;20028;-77
2022/02/25 02:32:00;;;;;;;2.10;1.40;;;;;;;;;;5071866;28;20032;-77
2022/02/25 02:34:26;;;;;;;2.50;1.67;;;;;;;;;;5072389;28;20035;-77
2022/02/25 02:36:52;;;;;;;2.20;1.60;;;;;;;;;;5072529;28;20028;-77
2022/02/25 02:39:19;;;;;;;2.55;1.45;;;;;;;;;;5072167;28;20020;-77
2022/02/25 02:41:45;;;;;;;2.72;1.77;;;;;;;;;;5057016;28;20024;-77
2022/02/25 02:44:11;;;;;;;2.65;1.60;;;;;;;;;;5092829;28;20447;-77
2022/02/25 02:46:38;;;;;;;2.50;1.30;;;;;;;;;;5092484;28;20043;-77
2022/02/25 02:49:04;;;;;;;2.22;1.42;;;;;;;;;;5074521;28;20032;-77
2022/02/25 02:51:31;;;;;;;2.38;1.70;;;;;;;;;;5091847;28;20525;-77
2022/02/25 02:53:57;;;;;;;2.53;1.80;;;;;;;;;;5074192;28;20081;-77
2022/02/25 02:56:24;;;;;;;1.98;1.17;;;;;;;;;;5092228;28;20571;-77
2022/02/25 02:58:55;;;;;;;2.83;1.60;;;;;;;;;;5092669;28;20020;-77
2022/02/25 03:01:22;;;;;;;1.83;1.30;;;;;;;;;;5091515;28;20016;-77
2022/02/25 03:03:48;;;;;;;4.05;1.63;;;;;;;;;;5074264;28;20120;-77
2022/02/25 03:06:14;;;;;;;2.33;1.60;;;;;;;;;;5075488;28;20032;-77
2022/02/25 03:08:40;;;;;;;1.63;1.30;;;;;;;;;;5075636;28;20053;-77
2022/02/25 03:11:06;;;;;;;3.40;1.98;;;;;;;;;;5075294;28;20041;-77
2022/02/25 03:13:32;;;;;;;2.20;1.45;;;;;;;;;;5074873;28;20527;-77
2022/02/25 03:15:58;;;;;;;2.58;1.55;;;;;;;;;;5075409;28;20021;-76
2022/02/25 03:18:25;;;;;;;4.15;1.45;;;;;;;;;;5075105;28;20025;-76
2022/02/25 03:20:51;;;;;;;2.30;1.40;;;;;;;;;;5057424;28;20453;-76
2022/02/25 03:23:17;;;;;;;2.78;1.30;;;;;;;;;;5056688;28;20027;-77
2022/02/25 03:25:43;;;;;;;3.08;1.60;;;;;;;;;;5057301;28;20020;-77
2022/02/25 03:28:09;;;;;;;3.85;1.90;;;;;;;;;;5075253;28;20507;-77
2022/02/25 03:30:35;;;;;;;1.50;1.30;;;;;;;;;;5075350;28;20597;-77
2022/02/25 03:33:01;;;;;;;2.63;1.63;;;;;;;;;;5075538;28;20024;-77
2022/02/25 03:35:28;;;;;;;3.40;1.58;;;;;;;;;;5057574;28;20481;-77
2022/02/25 03:37:54;;;;;;;2.13;1.50;;;;;;;;;;5075121;28;20025;-77
2022/02/25 03:40:20;;;;;;;1.98;1.63;;;;;;;;;;5062103;28;20040;-77
2022/02/25 03:42:47;;;;;;;1.92;1.13;;;;;;;;;;5083329;28;20017;-77
2022/02/25 03:45:13;;;;;;;3.40;1.73;;;;;;;;;;5057314;28;20025;-77
2022/02/25 03:47:39;;;;;;;2.75;1.30;;;;;;;;;;5074791;28;20029;-76
2022/02/25 03:50:06;;;;;;;1.73;1.33;;;;;;;;;;5075029;28;20096;-77
2022/02/25 03:52:33;;;;;;;3.42;1.58;;;;;;;;;;5056683;28;20028;-76
2022/02/25 03:54:59;;;;;;;1.98;1.30;;;;;;;;;;5075062;28;20086;-77
2022/02/25 03:57:25;;;;;;;1.85;1.33;;;;;;;;;;5056735;28;20409;-76
2022/02/25 03:59:51;;;;;;;1.67;1.40;;;;;;;;;;5074863;28;20039;-77
2022/02/25 04:02:17;;;;;;;2.03;1.42;;;;;;;;;;5056059;28;20147;-77
2022/02/25 04:04:44;;;;;;;2.03;1.23;;;;;;;;;;5084024;28;20403;-77
2022/02/25 04:07:10;;;;;;;2.17;1.30;;;;;;;;;;5094445;28;20080;-76
2022/02/25 04:09:36;;;;;;;2.92;1.45;;;;;;;;;;5094800;28;20032;-76
2022/02/25 04:12:02;;;;;;;2.45;1.30;;;;;;;;;;5094218;28;20028;-76
2022/02/25 04:14:28;;;;;;;1.63;1.10;;;;;;;;;;5075865;28;20032;-77
2022/02/25 04:16:55;;;;;;;1.85;1.30;;;;;;;;;;5076113;28;20016;-76
2022/02/25 04:19:21;;;;;;;1.73;1.40;;;;;;;;;;5094855;28;20024;-76
2022/02/25 04:21:47;;;;;;;3.58;1.52;;;;;;;;;;5075777;28;20020;-77
2022/02/25 04:24:14;;;;;;;3.28;1.50;;;;;;;;;;5094142;28;20129;-76
2022/02/25 04:26:40;;;;;;;1.50;1.17;;;;;;;;;;5094805;28;20020;-77
2022/02/25 04:29:06;;;;;;;2.40;1.23;;;;;;;;;;5094271;28;20028;-77
2022/02/25 04:31:33;;;;;;;1.90;1.13;;;;;;;;;;5075498;28;20028;-77
2022/02/25 04:33:59;;;;;;;2.22;1.20;;;;;;;;;;5076223;28;20032;-76
2022/02/25 04:36:25;;;;;;;2.13;1.30;;;;;;;;;;5094456;28;20491;-77
2022/02/25 04:38:52;;;;;;;1.75;1.10;;;;;;;;;;5076110;28;20028;-76
2022/02/25 04:41:19;;;;;;;1.98;1.30;;;;;;;;;;5080607;28;20390;-77
2022/02/25 04:43:45;;;;;;;3.25;1.50;;;;;;;;;;5075511;28;20395;-76
2022/02/25 04:46:19;;;;;;;0.98;0.85;;;;;;;;;;5076027;28;20028;-76
2022/02/25 04:48:45;;;;;;;2.05;1.33;;;;;;;;;;5075607;28;20418;-76
2022/02/25 04:51:12;;;;;;;1.55;1.20;;;;;;;;;;5093820;28;20028;-76
2022/02/25 04:53:38;;;;;;;1.48;1.00;;;;;;;;;;5074876;28;20031;-77
2022/02/25 04:56:05;;;;;;;1.88;1.30;;;;;;;;;;5093831;28;20035;-77
2022/02/25 04:58:33;;;;;;;1.42;1.00;;;;;;;;;;5075554;28;20020;-76
2022/02/25 05:01:00;;;;;;;2.22;1.20;;;;;;;;;;5075664;28;20036;-76
2022/02/25 05:03:26;;;;;;;1.35;0.90;;;;;;;;;;5093131;28;20386;-76
2022/02/25 05:05:52;;;;;;;1.38;0.95;;;;;;;;;;5074796;28;20534;-76
2022/02/25 05:08:18;;;;;;;1.52;0.98;;;;;;;;;;5075457;28;20051;-77
2022/02/25 05:10:44;;;;;;;1.60;1.10;;;;;;;;;;5053257;28;20021;-77
2022/02/25 05:13:10;;;;;;;1.63;1.00;;;;;;;;;;5080429;28;20028;-77
2022/02/25 05:21:06;;;;;;;2.13;1.00;;;;;;;;;;5053522;28;20039;-77
2022/02/25 05:23:32;;;;;;;1.45;1.10;;;;;;;;;;5052616;28;20017;-76
2022/02/25 05:25:58;;;;;;;1.83;1.10;;;;;;;;;;5062437;28;20120;-77
2022/02/25 05:28:24;;;;;;;1.27;1.00;;;;;;;;;;5093272;28;20019;-76
2022/02/25 05:30:51;;;;;;;1.15;1.00;;;;;;;;;;5093651;28;20034;-76
2022/02/25 05:33:17;;;;;;;1.75;1.00;;;;;;;;;;5093080;28;20058;-76
2022/02/25 05:35:43;;;;;;;2.00;1.00;;;;;;;;;;5075329;28;20394;-76
2022/02/25 05:38:10;;;;;;;1.90;1.02;;;;;;;;;;5093529;28;20481;-77
2022/02/25 05:40:36;;;;;;;1.75;1.10;;;;;;;;;;5094422;28;20047;-77
2022/02/25 05:43:03;;;;;;;2.55;1.10;;;;;;;;;;5092794;28;20016;-77
2022/02/25 05:45:29;;;;;;;1.65;0.98;;;;;;;;;;5093133;28;20107;-77
2022/02/25 05:47:55;;;;;;;1.75;1.10;;;;;;;;;;5093529;28;20039;-77
2022/02/25 05:50:22;;;;;;;2.10;0.95;;;;;;;;;;5092662;28;20115;-77
2022/02/25 05:52:48;;;;;;;1.67;1.00;;;;;;;;;;5092887;28;20020;-77
2022/02/25 05:55:16;;;;;;;1.73;0.90;;;;;;;;;;5074562;28;20032;-77
2022/02/25 05:57:42;;;;;;;1.80;1.15;;;;;;;;;;5075297;28;20028;-77
2022/02/25 06:00:10;;;;;;;1.20;0.90;;;;;;;;;;5075340;28;20020;-77
2022/02/25 06:02:36;;;;;;;1.60;1.00;;;;;;;;;;5075008;28;20016;-77
2022/02/25 06:05:03;;;;;;;1.80;1.33;;;;;;;;;;5081059;28;20086;-77
2022/02/25 06:07:30;;;;;;;1.15;0.98;;;;;;;;;;5073807;28;20040;-77
2022/02/25 06:09:56;;;;;;;1.13;1.02;;;;;;;;;;5056234;28;20067;-77
2022/02/25 06:12:22;;;;;;;1.85;1.00;;;;;;;;;;5074236;28;20025;-77
2022/02/25 06:14:48;;;;;;;3.17;0.95;;;;;;;;;;5074049;28;20031;-77
2022/02/25 06:17:14;;;;;;;1.42;0.98;;;;;;;;;;5088622;28;20020;-77
2022/02/25 06:19:41;;;;;;;2.15;1.10;;;;;;;;;;5094459;28;20032;-77
2022/02/25 06:22:07;;;;;;;1.38;0.80;;;;;;;;;;5075878;28;20024;-77
2022/02/25 06:24:33;;;;;;;1.52;0.88;;;;;;;;;;5094703;28;20084;-77
2022/02/25 06:26:59;;;;;;;2.75;1.10;;;;;;;;;;5093344;28;20028;-77
2022/02/25 06:29:25;;;;;;;1.55;0.77;;;;;;;;;;5092521;28;20036;-77
2022/02/25 06:31:51;;;;;;;1.60;0.95;;;;;;;;;;5074360;28;20028;-77
2022/02/25 06:34:18;;;;;;;1.63;0.90;;;;;;;;;;5092447;28;20588;-77
2022/02/25 06:36:44;;;;;;;2.08;0.90;;;;;;;;;;5093135;28;20379;-77
2022/02/25 06:39:10;;;;;;;1.30;0.80;;;;;;;;;;5076573;28;20024;-77
2022/02/25 06:41:36;;;;;;;1.88;1.10;;;;;;;;;;5094307;28;20024;-77
2022/02/25 06:44:02;;;;;;;1.98;0.90;;;;;;;;;;5057966;28;20028;-77
2022/02/25 06:46:29;;;;;;;2.00;1.10;;;;;;;;;;5076289;28;20410;-77
2022/02/25 06:48:55;;;;;;;1.42;0.90;;;;;;;;;;5057885;28;20036;-77
2022/02/25 06:51:21;;;;;;;1.77;1.10;;;;;;;;;;5075481;28;20044;-77
2022/02/25 06:53:47;;;;;;;2.30;1.10;;;;;;;;;;5076184;28;20032;-77
2022/02/25 06:56:13;;;;;;;0.90;0.70;;;;;;;;;;5057734;28;20025;-77
2022/02/25 06:58:39;;;;;;;1.17;0.95;;;;;;;;;;5076000;28;20025;-77
2022/02/25 07:01:06;;;;;;;2.08;1.10;;;;;;;;;;5075990;28;20055;-77
2022/02/25 07:03:32;;;;;;;1.42;0.80;;;;;;;;;;5075293;28;20498;-77
2022/02/25 07:05:59;;;;;;;1.20;0.90;;;;;;;;;;5095796;28;20024;-77
2022/02/25 07:08:25;;;;;;;1.95;0.90;;;;;;;;;;5077721;28;20067;-77
2022/02/25 07:10:51;;;;;;;1.63;1.10;;;;;;;;;;5096117;28;20024;-77
2022/02/25 07:13:19;;;;;;;1.92;0.73;;;;;;;;;;5077877;28;20399;-77
2022/02/25 07:15:45;;;;;;;1.35;0.80;;;;;;;;;;5093771;28;20028;-77
2022/02/25 07:18:15;;;;;;;1.98;0.98;;;;;;;;;;5075990;28;20017;-77
2022/02/25 07:20:42;;;;;;;2.58;1.00;;;;;;;;;;5075722;28;20078;-77
2022/02/25 07:23:08;;;;;;;1.38;0.80;;;;;;;;;;5076114;28;20518;-77
2022/02/25 07:25:34;;;;;;;1.30;0.88;;;;;;;;;;5075421;28;20024;-77
2022/02/25 07:28:00;;;;;;;1.60;0.90;;;;;;;;;;5075878;28;20027;-77
2022/02/25 07:30:28;;;;;;;1.42;0.75;;;;;;;;;;5057358;28;20487;-77
2022/02/25 07:32:54;;;;;;;1.60;0.88;;;;;;;;;;5075708;28;20017;-77
2022/02/25 07:35:20;;;;;;;1.95;0.90;;;;;;;;;;5075042;28;20445;-77
2022/02/25 07:37:46;;;;;;;1.63;1.13;;;;;;;;;;5075289;28;20095;-77
2022/02/25 07:40:13;;;;;;;1.45;0.88;;;;;;;;;;5075375;28;20025;-77
2022/02/25 07:42:40;;;;;;;1.70;0.98;;;;;;;;;;5067864;28;20024;-77
2022/02/25 07:45:06;;;;;;;1.48;0.80;;;;;;;;;;5094843;28;20024;-77
2022/02/25 07:47:32;;;;;;;1.15;0.80;;;;;;;;;;5095940;28;20028;-77
2022/02/25 07:49:58;;;;;;;2.50;1.15;;;;;;;;;;5095135;28;20058;-77
2022/02/25 07:52:24;;;;;;;1.40;1.00;;;;;;;;;;5094915;28;20426;-77
2022/02/25 07:54:51;;;;;;;1.67;0.90;;;;;;;;;;5077108;28;20020;-77
2022/02/25 07:57:18;;;;;;;1.05;0.77;;;;;;;;;;5095295;28;20020;-77
2022/02/25 07:59:47;;;;;;;2.40;0.77;;;;;;;;;;5095296;28;20020;-77
2022/02/25 08:02:13;;;;;;;2.78;1.00;;;;;;;;;;5085276;28;20024;-77
2022/02/25 08:04:39;;;;;;;1.17;0.70;;;;;;;;;;5068313;28;20805;-77
2022/02/25 08:07:05;;;;;;;2.38;0.98;;;;;;;;;;5064624;28;20039;-78
2022/02/25 08:09:31;;;;;;;1.20;0.68;;;;;;;;;;5050985;28;20036;-78
2022/02/25 08:11:57;;;;;;;2.15;0.77;;;;;;;;;;5060953;28;20052;-79
2022/02/25 08:14:23;;;;;;;1.17;0.80;;;;;;;;;;5061000;28;20043;-79
2022/02/25 08:16:50;;;;;;;1.58;0.80;;;;;;;;;;5067289;28;20024;-77
2022/02/25 08:19:17;;;;;;;2.25;0.90;;;;;;;;;;5051487;28;20108;-79
2022/02/25 08:21:43;;;;;;;1.23;0.80;;;;;;;;;;5062996;28;20028;-78
2022/02/25 08:24:09;;;;;;;2.08;1.00;;;;;;;;;;5045620;28;20808;-79
2022/02/25 08:26:36;;;;;;;3.00;1.00;;;;;;;;;;5071256;28;20084;-77
2022/02/25 08:29:02;;;;;;;1.40;0.70;;;;;;;;;;5049825;28;20021;-78
2022/02/25 08:31:28;;;;;;;4.07;1.00;;;;;;;;;;5072263;28;20032;-81
2022/02/25 08:33:54;;;;;;;1.35;0.80;;;;;;;;;;5054743;28;20032;-80
2022/02/25 08:36:21;;;;;;;2.00;0.70;;;;;;;;;;5056833;28;20474;-81
2022/02/25 08:38:47;;;;;;;1.60;0.85;;;;;;;;;;5068775;28;20028;-79
2022/02/25 08:41:13;;;;;;;2.05;0.80;;;;;;;;;;5041789;28;20051;-80
2022/02/25 08:43:40;;;;;;;1.25;0.70;;;;;;;;;;5069386;28;20044;-80
2022/02/25 08:46:06;;;;;;;1.70;0.90;;;;;;;;;;5067850;28;20044;-77
2022/02/25 08:48:33;;;;;;;2.40;1.02;;;;;;;;;;5063417;28;20085;-77
2022/02/25 08:50:59;;;;;;;1.45;0.73;;;;;;;;;;5068778;28;20021;-77
2022/02/25 08:53:25;;;;;;;1.52;0.80;;;;;;;;;;5059277;28;20032;-77
2022/02/25 08:55:51;;;;;;;1.80;0.90;;;;;;;;;;5066613;28;20872;-77
2022/02/25 08:58:17;;;;;;;2.17;0.73;;;;;;;;;;5063481;28;20040;-77
2022/02/25 09:00:44;;;;;;;2.35;0.90;;;;;;;;;;5067123;28;20115;-76
2022/02/25 09:03:10;;;;;;;2.38;0.88;;;;;;;;;;5057457;28;20025;-76
2022/02/25 09:05:36;;;;;;;3.15;1.10;;;;;;;;;;5045429;28;20040;-76
2022/02/25 09:08:02;;;;;;;1.73;0.88;;;;;;;;;;5064090;28;20044;-77
2022/02/25 09:10:28;;;;;;;3.00;0.90;;;;;;;;;;5059064;28;20044;-76
2022/02/25 09:12:55;;;;;;;3.03;0.80;;;;;;;;;;5070158;28;20630;-76
2022/02/25 09:15:22;;;;;;;1.88;0.82;;;;;;;;;;5070505;28;20103;-76
2022/02/25 09:17:51;;;;;;;1.60;0.75;;;;;;;;;;5062377;28;20479;-76
2022/02/25 09:20:18;;;;;;;2.50;1.10;;;;;;;;;;5044430;28;20028;-77
2022/02/25 09:22:44;;;;;;;1.98;0.80;;;;;;;;;;5061458;28;20013;-77
2022/02/25 09:25:10;;;;;;;1.92;0.90;;;;;;;;;;5070780;28;20510;-78
2022/02/25 09:27:37;;;;;;;2.20;0.80;;;;;;;;;;5067212;28;20494;-77
2022/02/25 09:30:04;;;;;;;1.85;0.77;;;;;;;;;;5052274;28;20024;-76
2022/02/25 09:32:31;;;;;;;2.00;0.85;;;;;;;;;;5052689;28;20048;-76
2022/02/25 09:34:57;;;;;;;3.85;0.85;;;;;;;;;;5060122;28;20040;-77
2022/02/25 09:37:23;;;;;;;0.70;0.60;;;;;;;;;;5061563;28;20017;-77
2022/02/25 09:39:49;;;;;;;1.65;1.00;;;;;;;;;;5050919;28;20021;-78
2022/02/25 09:42:19;;;;;;;3.03;1.05;;;;;;;;;;5064892;28;20090;-77
2022/02/25 09:44:45;;;;;;;2.40;0.70;;;;;;;;;;5059475;28;20377;-78
2022/02/25 09:47:12;;;;;;;1.35;0.60;;;;;;;;;;5040288;28;20044;-76
2022/02/25 09:49:38;;;;;;;1.50;0.80;;;;;;;;;;5026375;28;20036;-77
2022/02/25 09:52:06;;;;;;;1.92;0.85;;;;;;;;;;5067338;28;20404;-76
2022/02/25 09:54:32;;;;;;;2.53;0.80;;;;;;;;;;5035063;28;20016;-76
2022/02/25 09:56:58;;;;;;;1.75;1.00;;;;;;;;;;5068016;28;20029;-76
2022/02/25 09:59:25;;;;;;;3.03;1.00;;;;;;;;;;5050563;28;20321;-77
2022/02/25 10:01:51;;;;;;;1.83;0.90;;;;;;;;;;5066800;28;20383;-78
2022/02/25 10:04:20;;;;;;;1.98;0.60;;;;;;;;;;5066825;28;20048;-77
2022/02/25 10:06:46;;;;;;;2.88;0.90;;;;;;;;;;5058483;28;20032;-77
2022/02/25 10:09:15;;;;;;;3.03;0.88;;;;;;;;;;5051764;28;20048;-77
2022/02/25 10:12:02;;;;;;;1.55;0.85;;;;;;;;;;5066620;28;20636;-76
2022/02/25 10:14:32;;;;;;;6.30;1.10;;;;;;;;;;5059855;28;20025;-77
2022/02/25 10:17:08;;;;;;;1.45;0.80;;;;;;;;;;5070104;28;20093;-77
2022/02/25 10:19:35;;;;;;;3.03;0.90;;;;;;;;;;5044698;28;20049;-76
2022/02/25 10:22:41;;;;;;;1.15;0.60;;;;;;;;;;5063946;28;20479;-76
2022/02/25 10:25:11;;;;;;;2.22;0.93;;;;;;;;;;4972297;28;20104;-76
2022/02/25 10:27:37;;;;;;;3.33;0.82;;;;;;;;;;4969344;28;20027;-76
2022/02/25 10:30:10;;;;;;;1.60;0.70;;;;;;;;;;5008772;28;20033;-77
2022/02/25 10:32:43;;;;;;;1.17;0.70;;;;;;;;;;5063807;28;20025;-77
2022/02/25 10:35:21;;;;;;;2.85;0.98;;;;;;;;;;5048491;28;20033;-77
2022/02/25 10:37:54;;;;;;;1.92;0.90;;;;;;;;;;5062032;28;20025;-76
2022/02/25 10:40:21;;;;;;;4.82;1.27;;;;;;;;;;5053765;28;20078;-77
2022/02/25 10:42:47;;;;;;;4.60;1.50;;;;;;;;;;5073248;28;20100;-76
2022/02/25 10:45:26;;;;;;;3.72;1.40;;;;;;;;;;5069602;28;20178;-76
2022/02/25 10:47:52;;;;;;;5.18;1.88;;;;;;;;;;5062070;28;20017;-77
2022/02/25 10:50:20;;;;;;;1.83;0.90;;;;;;;;;;5058758;28;20486;-76
2022/02/25 10:52:49;;;;;;;2.03;0.70;;;;;;;;;;5046996;28;20025;-76
2022/02/25 10:55:22;;;;;;;3.60;1.13;;;;;;;;;;5043580;28;20391;-77
2022/02/25 10:57:49;;;;;;;3.63;1.20;;;;;;;;;;5059811;28;20021;-76
2022/02/25 11:00:16;;;;;;;3.83;1.15;;;;;;;;;;5053987;28;20036;-76
2022/02/25 11:02:49;;;;;;;2.03;0.93;;;;;;;;;;5054507;28;20020;-76
2022/02/25 11:05:18;;;;;;;7.07;2.38;;;;;;;;;;5053587;28;20117;-76
2022/02/25 11:07:45;;;;;;;3.70;0.82;;;;;;;;;;5040450;28;20041;-76
2022/02/25 11:10:13;;;;;;;3.20;1.10;;;;;;;;;;5064622;28;20510;-76
2022/02/25 11:12:40;;;;;;;3.67;0.90;;;;;;;;;;5059689;28;20451;-76
2022/02/25 11:15:09;;;;;;;3.85;1.05;;;;;;;;;;5066724;28;20123;-76
2022/02/25 11:17:35;;;;;;;2.45;1.23;;;;;;;;;;5064535;28;20025;-76
2022/02/25 11:20:03;;;;;;;2.17;1.00;;;;;;;;;;5064921;28;20139;-76
2022/02/25 11:22:30;;;;;;;4.75;1.30;;;;;;;;;;5061678;28;20113;-75
2022/02/25 11:24:58;;;;;;;5.15;1.05;;;;;;;;;;5074994;28;20026;-76
2022/02/25 11:27:25;;;;;;;2.17;0.93;;;;;;;;;;5058007;28;20525;-75
2022/02/25 11:29:57;;;;;;;2.85;1.50;;;;;;;;;;5069339;28;20035;-76
2022/02/25 11:32:28;;;;;;;4.53;1.20;;;;;;;;;;5062115;28;20025;-76
2022/02/25 11:34:54;;;;;;;7.28;3.47;;;;;;;;;;5064352;28;20282;-76
2022/02/25 11:37:39;;;;;;;3.40;1.08;;;;;;;;;;5066159;28;20020;-76
2022/02/25 11:40:05;;;;;;;8.55;1.42;;;;;;;;;;5054446;28;20033;-76
2022/02/25 11:42:32;;;;;;;6.80;1.40;;;;;;;;;;5057704;28;20094;-76
2022/02/25 11:45:30;;;;;;;3.33;1.05;;;;;;;;;;5064025;28;20021;-76
2022/02/25 11:47:58;;;;;;;5.18;2.58;;;;;;;;;;5017499;28;20048;-76
2022/02/25 11:50:32;;;;;;;5.15;1.20;;;;;;;;;;5068054;28;20140;-76
2022/02/25 11:53:03;;;;;;;8.27;1.23;;;;;;;;;;5052925;28;20102;-76
2022/02/25 11:55:35;;;;;;;3.53;1.17;;;;;;;;;;5066522;28;20013;-76
2022/02/25 11:58:20;;;;;;;8.20;5.38;;;;;;;;;;5061891;28;20017;-76
2022/02/25 12:01:05;;;;;;;5.28;3.70;;;;;;;;;;5051361;28;20055;-76
2022/02/25 12:03:34;;;;;;;5.28;1.10;;;;;;;;;;5068946;28;20395;-78
2022/02/25 12:06:00;;;;;;;3.58;1.60;;;;;;;;;;5053429;28;20112;-77
2022/02/25 12:08:27;;;;;;;6.68;2.90;;;;;;;;;;5065147;28;20135;-78
2022/02/25 12:10:53;;;;;;;8.77;4.57;;;;;;;;;;5067473;28;20016;-77
2022/02/25 12:13:22;;;;;;;3.78;1.10;;;;;;;;;;5056259;28;20037;-77
2022/02/25 12:15:49;;;;;;;3.20;1.13;;;;;;;;;;5058036;28;20045;-79
2022/02/25 12:18:17;;;;;;;5.38;2.97;;;;;;;;;;5060796;28;20108;-78
2022/02/25 12:20:50;;;;;;;17.23;12.55;;;;;;;;;;5060293;28;20537;-78
2022/02/25 12:23:23;;;;;;;8.40;3.05;;;;;;;;;;5019190;28;20553;-77
2022/02/25 12:25:49;;;;;;;;;;;;;;;;;;5043887;28;20099;-78
2022/02/25 12:28:31;;;;;;;3.78;2.03;;;;;;;;;;5046691;28;19916;-79
2022/02/25 12:31:04;;;;;;;9.07;6.00;;;;;;;;;;5046154;28;20044;-79
2022/02/25 12:33:30;;;;;;;;;;;;;;;;;;5079814;28;20016;-78
2022/02/25 12:35:57;;;;;;;2.00;1.10;;;;;;;;;;5065407;28;19957;-79
2022/02/25 12:38:25;;;;;;;3.63;1.95;;;;;;;;;;5067390;28;20104;-79
2022/02/25 12:40:54;;;;;;;10.23;6.30;;;;;;;;;;5075831;28;20104;-79
2022/02/25 12:43:21;;;;;;;5.65;3.95;;;;;;;;;;5072031;28;20031;-79
2022/02/25 12:45:47;;;;;;;3.20;1.63;;;;;;;;;;5062336;28;20020;-78
2022/02/25 12:48:14;;;;;;;13.25;2.63;;;;;;;;;;5043544;28;20095;-80
2022/02/25 12:50:41;;;;;;;5.53;3.75;;;;;;;;;;5073103;28;20025;-81
2022/02/25 12:53:08;;;;;;;12.23;9.15;;;;;;;;;;5063507;28;20033;-79
2022/02/25 12:55:34;;;;;;;16.10;11.80;;;;;;;;;;5063894;28;20025;-83
2022/02/25 12:58:00;;;;;;;8.68;5.28;;;;;;;;;;5070990;28;20024;-82
2022/02/25 13:00:27;;;;;;;7.15;3.90;;;;;;;;;;5050806;28;20025;-82
2022/02/25 13:02:56;;;;;;;11.55;8.48;;;;;;;;;;5070696;28;20025;-80
2022/02/25 13:05:23;;;;;;;11.10;6.75;;;;;;;;;;5070464;28;20012;-81
2022/02/25 13:07:56;;;;;;;3.13;1.77;;;;;;;;;;5046492;28;20153;-77
2022/02/25 13:10:26;;;;;;;2.85;1.48;;;;;;;;;;5065319;28;20029;-76
2022/02/25 13:12:52;;;;;;;2.85;1.70;;;;;;;;;;5047455;28;20029;-76
2022/02/25 13:15:25;;;;;;;5.78;3.25;;;;;;;;;;5075800;28;20023;-83
2022/02/25 13:17:52;;;;;;;5.57;2.30;;;;;;;;;;5046257;28;20021;-76
2022/02/25 13:20:21;;;;;;;3.20;1.20;;;;;;;;;;5055027;28;20483;-82
2022/02/25 13:22:48;;;;;;;3.47;1.77;;;;;;;;;;5071930;28;20017;-82
2022/02/25 13:25:16;;;;;;;3.08;1.40;;;;;;;;;;5063114;28;20024;-82
2022/02/25 13:27:47;;;;;;;5.60;2.78;;;;;;;;;;5058639;28;20452;-81
2022/02/25 13:30:13;;;;;;;3.15;1.27;;;;;;;;;;5063609;28;20031;-81
2022/02/25 13:32:40;;;;;;;3.10;1.40;;;;;;;;;;5062350;28;20059;-78
2022/02/25 13:35:08;;;;;;;2.72;1.52;;;;;;;;;;5061738;28;20043;-79
2022/02/25 13:37:45;;;;;;;4.15;2.10;;;;;;;;;;5070993;28;20020;-80
2022/02/25 13:40:26;;;;;;;3.13;1.85;;;;;;;;;;5058375;28;20025;-80
2022/02/25 13:42:52;;;;;;;2.53;1.30;;;;;;;;;;5058951;28;20020;-81
2022/02/25 13:45:35;;;;;;;2.20;1.30;;;;;;;;;;5060619;28;20031;-80
2022/02/25 13:53:52;;;;;;;3.88;1.33;;;;;;;;;;5065296;28;20462;-80
2022/02/25 13:56:18;;;;;;;3.35;1.73;;;;;;;;;;5066504;28;20025;-80
2022/02/25 13:58:56;;;;;;;8.02;2.35;;;;;;;;;;5062349;28;20044;-79
2022/02/25 14:01:23;;;;;;;8.05;3.38;;;;;;;;;;5047126;28;20025;-75
2022/02/25 14:03:53;;;;;;;8.45;6.15;;;;;;;;;;5061538;28;20020;-82
2022/02/25 14:06:30;;;;;;;3.05;1.50;;;;;;;;;;5068596;28;20021;-80
2022/02/25 14:08:57;;;;;;;9.00;5.38;;;;;;;;;;5073949;28;20128;-80
2022/02/25 14:11:39;;;;;;;2.45;1.20;;;;;;;;;;5044964;28;20020;-79
2022/02/25 14:14:06;;;;;;;5.28;4.15;;;;;;;;;;5064488;28;20044;-79
2022/02/25 14:16:33;;;;;;;3.10;0.93;;;;;;;;;;5066828;28;20016;-79
2022/02/25 14:19:18;;;;;;;2.13;1.40;;;;;;;;;;5050052;28;20017;-79
2022/02/25 14:21:46;;;;;;;4.78;3.53;;;;;;;;;;5039153;28;20012;-81
2022/02/25 14:24:26;;;;;;;5.45;3.47;;;;;;;;;;5050519;28;20021;-78
2022/02/25 14:27:08;;;;;;;5.40;2.75;;;;;;;;;;5068330;28;20047;-82
2022/02/25 14:29:34;;;;;;;3.47;1.83;;;;;;;;;;5057518;28;20013;-76
2022/02/25 14:32:08;;;;;;;2.58;1.00;;;;;;;;;;5054725;28;20051;-78
2022/02/25 14:34:44;;;;;;;4.40;1.02;;;;;;;;;;5036771;28;20028;-77
2022/02/25 14:37:36;;;;;;;3.65;2.70;;;;;;;;;;5062417;28;20083;-76
2022/02/25 14:40:05;;;;;;;3.35;1.00;;;;;;;;;;5058831;28;20044;-78
2022/02/25 14:42:32;;;;;;;4.03;1.98;;;;;;;;;;5054084;28;20406;-77
2022/02/25 14:45:00;;;;;;;2.72;1.35;;;;;;;;;;5055714;28;20116;-81
2022/02/25 14:47:27;;;;;;;4.55;1.02;;;;;;;;;;5042219;28;20081;-77
2022/02/25 14:49:53;;;;;;;2.92;1.10;;;;;;;;;;5067327;28;20008;-78
2022/02/25 14:52:20;;;;;;;2.17;0.82;;;;;;;;;;5068243;28;20082;-76
2022/02/25 14:54:46;;;;;;;4.32;2.10;;;;;;;;;;5059935;28;20104;-79
2022/02/25 14:57:12;;;;;;;4.90;1.48;;;;;;;;;;5058621;28;20859;-77